createdAt,value
2022-11-12T00:02:06.979Z,5.85
2022-11-12T00:05:27.672Z,5.87
2022-11-12T00:08:48.073Z,5.93
2022-11-12T00:12:08.636Z,5.99
2022-11-12T00:15:28.946Z,5.83
2022-11-12T00:18:50.286Z,5.90
2022-11-12T00:22:10.569Z,5.88
2022-11-12T00:25:30.838Z,5.88
2022-11-12T00:28:50.873Z,5.99
2022-11-12T00:32:12.089Z,6.09
2022-11-12T00:35:34.584Z,5.98
2022-11-12T00:38:54.756Z,6.01
2022-11-12T00:42:15.095Z,6.00
2022-11-12T00:45:34.988Z,6.04
2022-11-12T00:48:55.351Z,6.06
2022-11-12T00:52:17.113Z,5.88
2022-11-12T00:55:37.330Z,5.91
2022-11-12T00:58:57.972Z,6.03
2022-11-12T01:02:19.945Z,5.90
2022-11-12T01:05:40.172Z,5.92
2022-11-12T01:09:01.912Z,6.05
2022-11-12T01:12:22.348Z,6.11
2022-11-12T01:15:42.968Z,6.13
2022-11-12T01:19:06.756Z,5.98
2022-11-12T01:22:26.790Z,6.10
2022-11-12T01:25:48.227Z,6.14
2022-11-12T01:29:08.519Z,6.00
2022-11-12T01:32:28.932Z,6.13
2022-11-12T01:35:49.081Z,6.15
2022-11-12T01:39:09.731Z,6.12
2022-11-12T01:42:33.031Z,5.95
2022-11-12T01:45:53.874Z,6.08
2022-11-12T01:49:18.368Z,5.92
2022-11-12T01:52:45.951Z,6.01
2022-11-12T01:56:07.442Z,5.97
2022-11-12T01:59:37.076Z,5.81
2022-11-12T02:02:59.805Z,5.90
2022-11-12T02:06:21.001Z,5.91
2022-11-12T02:09:41.658Z,5.89
2022-11-12T02:13:21.241Z,5.86
2022-11-12T02:16:45.048Z,5.90
2022-11-12T02:20:09.706Z,5.79
2022-11-12T02:23:32.317Z,5.67
2022-11-12T02:26:55.586Z,5.76
2022-11-12T02:30:16.148Z,5.75
2022-11-12T02:33:36.274Z,5.64
2022-11-12T02:36:56.696Z,5.61
2022-11-12T02:40:18.936Z,5.65
2022-11-12T02:43:39.928Z,5.71
2022-11-12T02:47:00.307Z,5.57
2022-11-12T02:50:20.559Z,5.53
2022-11-12T02:53:40.599Z,5.60
2022-11-12T02:57:02.448Z,5.51
2022-11-12T03:00:22.745Z,5.51
2022-11-12T03:03:42.916Z,5.42
2022-11-12T03:07:03.346Z,5.26
2022-11-12T03:10:23.931Z,5.48
2022-11-12T03:13:45.727Z,5.38
2022-11-12T03:17:06.066Z,5.47
2022-11-12T03:20:27.095Z,5.36
2022-11-12T03:23:47.110Z,5.16
2022-11-12T03:27:07.418Z,5.27
2022-11-12T03:30:30.794Z,5.34
2022-11-12T03:33:51.053Z,5.32
2022-11-12T03:37:11.282Z,5.37
2022-11-12T03:40:32.848Z,5.31
2022-11-12T03:43:52.945Z,5.28
2022-11-12T03:47:14.816Z,5.21
2022-11-12T03:50:35.308Z,5.10
2022-11-12T03:53:55.341Z,5.13
2022-11-12T03:57:15.626Z,5.10
2022-11-12T04:00:35.822Z,5.05
2022-11-12T04:03:57.616Z,5.15
2022-11-12T04:07:36.707Z,5.12
2022-11-12T04:10:57.231Z,5.06
2022-11-12T04:14:17.309Z,5.03
2022-11-12T04:17:56.285Z,4.99
2022-11-12T04:21:36.626Z,5.01
2022-11-12T04:25:15.496Z,5.16
2022-11-12T04:28:35.817Z,4.96
2022-11-12T04:31:56.250Z,4.73
2022-11-12T04:35:18.504Z,4.77
2022-11-12T04:38:39.904Z,4.48
2022-11-12T04:42:19.109Z,4.56
2022-11-12T04:45:41.420Z,4.74
2022-11-12T04:49:01.587Z,4.78
2022-11-12T04:52:21.697Z,4.63
2022-11-12T04:55:43.263Z,4.69
2022-11-12T04:59:03.741Z,4.71
2022-11-12T05:02:24.222Z,4.78
2022-11-12T05:05:44.290Z,4.47
2022-11-12T05:09:04.911Z,4.49
2022-11-12T05:12:27.040Z,4.47
2022-11-12T05:15:47.464Z,4.38
2022-11-12T05:19:07.966Z,4.41
2022-11-12T05:22:43.245Z,4.32
2022-11-12T05:26:04.426Z,4.46
2022-11-12T05:29:25.876Z,4.43
2022-11-12T05:32:45.905Z,4.21
2022-11-12T05:36:06.625Z,4.14
2022-11-12T05:39:27.153Z,4.16
2022-11-12T05:42:47.503Z,4.45
2022-11-12T05:46:08.951Z,4.57
2022-11-12T05:49:30.727Z,4.67
2022-11-12T05:52:50.913Z,4.65
2022-11-12T05:56:11.743Z,4.53
2022-11-12T05:59:32.253Z,4.52
2022-11-12T06:02:57.205Z,4.61
2022-11-12T06:06:17.775Z,4.71
2022-11-12T06:09:37.983Z,4.44
2022-11-12T06:12:58.508Z,4.46
2022-11-12T06:16:18.780Z,4.49
2022-11-12T06:19:40.447Z,4.40
2022-11-12T06:23:00.831Z,4.42
2022-11-12T06:26:22.029Z,4.55
2022-11-12T06:29:42.421Z,4.56
2022-11-12T06:33:03.013Z,4.36
2022-11-12T06:36:24.508Z,4.39
2022-11-12T06:39:44.944Z,4.44
2022-11-12T06:43:05.207Z,4.34
2022-11-12T06:46:25.348Z,4.44
2022-11-12T06:49:45.815Z,4.27
2022-11-12T06:53:07.706Z,4.24
2022-11-12T06:56:27.974Z,4.22
2022-11-12T06:59:48.343Z,4.17
2022-11-12T07:03:09.309Z,4.23
2022-11-12T07:06:29.463Z,4.26
2022-11-12T07:09:51.149Z,4.17
2022-11-12T07:13:12.432Z,4.08
2022-11-12T07:16:33.080Z,4.30
2022-11-12T07:19:53.616Z,4.36
2022-11-12T07:23:13.996Z,4.30
2022-11-12T07:26:35.871Z,4.30
2022-11-12T07:29:56.125Z,4.42
2022-11-12T07:33:16.343Z,4.47
2022-11-12T07:36:36.977Z,4.53
2022-11-12T07:39:57.503Z,4.34
2022-11-12T07:43:19.287Z,4.15
2022-11-12T07:46:39.439Z,4.15
2022-11-12T07:50:00.272Z,4.33
2022-11-12T07:53:20.719Z,4.28
2022-11-12T07:56:41.165Z,4.31
2022-11-12T08:00:03.936Z,4.39
2022-11-12T08:03:24.184Z,4.44
2022-11-12T08:06:44.568Z,4.54
2022-11-12T08:10:06.072Z,4.73
2022-11-12T08:13:26.677Z,4.53
2022-11-12T08:16:48.202Z,4.45
2022-11-12T08:20:09.712Z,4.67
2022-11-12T08:23:30.478Z,4.66
2022-11-12T08:26:51.093Z,4.90
2022-11-12T08:30:12.635Z,4.59
2022-11-12T08:33:35.080Z,4.71
2022-11-12T08:36:55.262Z,4.83
2022-11-12T08:40:15.747Z,4.83
2022-11-12T08:43:36.546Z,4.94
2022-11-12T08:46:57.111Z,4.85
2022-11-12T08:50:19.174Z,5.06
2022-11-12T08:53:39.262Z,5.02
2022-11-12T08:56:59.611Z,5.00
2022-11-12T09:00:20.072Z,5.15
2022-11-12T09:03:40.574Z,5.27
2022-11-12T09:07:02.386Z,5.10
2022-11-12T09:10:22.711Z,5.11
2022-11-12T09:13:42.891Z,5.30
2022-11-12T09:17:03.194Z,5.42
2022-11-12T09:20:23.891Z,5.40
2022-11-12T09:23:45.615Z,5.44
2022-11-12T09:27:06.015Z,5.47
2022-11-12T09:30:26.503Z,5.50
2022-11-12T09:33:46.747Z,5.79
2022-11-12T09:37:07.240Z,5.65
2022-11-12T09:40:38.697Z,5.85
2022-11-12T09:44:01.595Z,5.78
2022-11-12T09:47:29.591Z,5.74
2022-11-12T09:50:56.683Z,6.02
2022-11-12T09:54:23.982Z,6.01
2022-11-12T09:57:45.752Z,5.96
2022-11-12T10:01:15.099Z,6.19
2022-11-12T10:04:56.855Z,6.17
2022-11-12T10:08:34.934Z,6.02
2022-11-12T10:12:31.470Z,6.15
2022-11-12T10:16:33.523Z,5.91
2022-11-12T10:20:04.672Z,6.08
2022-11-12T10:23:28.428Z,5.76
2022-11-12T10:26:49.144Z,5.63
2022-11-12T10:30:15.551Z,5.87
2022-11-12T10:33:37.058Z,6.10
2022-11-12T10:37:01.433Z,5.89
2022-11-12T10:40:31.757Z,5.89
2022-11-12T10:44:00.285Z,5.70
2022-11-12T10:47:24.867Z,5.73
2022-11-12T10:50:46.350Z,5.85
2022-11-12T10:54:21.212Z,5.99
2022-11-12T10:57:41.961Z,5.92
2022-11-12T11:01:04.841Z,5.89
2022-11-12T11:04:31.308Z,5.83
2022-11-12T11:07:53.010Z,5.83
2022-11-12T11:11:22.791Z,6.11
2022-11-12T11:14:44.418Z,6.34
2022-11-12T11:18:04.516Z,5.88
2022-11-12T11:21:49.441Z,6.03
2022-11-12T11:25:21.236Z,5.98
2022-11-12T11:28:49.415Z,5.94
2022-11-12T11:32:20.243Z,5.90
2022-11-12T11:35:52.620Z,6.23
2022-11-12T11:39:21.884Z,6.21
2022-11-12T11:43:00.570Z,6.14
2022-11-12T11:46:33.656Z,6.21
2022-11-12T11:50:15.848Z,6.09
2022-11-12T11:53:43.997Z,6.08
2022-11-12T11:57:11.714Z,6.11
2022-11-12T12:00:44.563Z,6.05
2022-11-12T12:04:33.140Z,6.12
2022-11-12T12:08:02.225Z,6.40
2022-11-12T12:11:30.074Z,6.26
2022-11-12T12:14:58.183Z,6.21
2022-11-12T12:18:31.471Z,6.11
2022-11-12T12:21:52.913Z,6.32
2022-11-12T12:25:18.372Z,6.35
2022-11-12T12:28:45.280Z,6.37
2022-11-12T12:32:11.004Z,6.29
2022-11-12T12:35:36.481Z,5.92
2022-11-12T12:39:09.378Z,6.00
2022-11-12T12:42:36.798Z,6.03
2022-11-12T12:45:58.014Z,6.07
2022-11-12T12:49:25.541Z,6.09
2022-11-12T12:53:04.248Z,6.35
2022-11-12T12:56:48.055Z,6.28
2022-11-12T13:00:31.931Z,6.29
2022-11-12T13:03:58.809Z,6.17
2022-11-12T13:07:37.676Z,6.46
2022-11-12T13:10:59.598Z,6.26
2022-11-12T13:14:51.417Z,6.21
2022-11-12T13:18:17.171Z,6.37
2022-11-12T13:21:37.790Z,6.49
2022-11-12T13:25:03.400Z,6.09
2022-11-12T13:28:25.443Z,6.12
2022-11-12T13:31:46.339Z,6.29
2022-11-12T13:35:22.050Z,6.31
2022-11-12T13:38:42.534Z,6.33
2022-11-12T13:42:30.952Z,6.36
2022-11-12T13:45:57.536Z,6.27
2022-11-12T13:49:17.987Z,6.31
2022-11-12T13:52:40.578Z,6.16
2022-11-12T13:56:01.192Z,6.31
2022-11-12T13:59:23.287Z,6.31
2022-11-12T14:02:48.947Z,6.39
2022-11-12T14:06:16.269Z,6.49
2022-11-12T14:09:52.217Z,6.45
2022-11-12T14:13:19.884Z,6.41
2022-11-12T14:16:50.372Z,6.46
2022-11-12T14:20:25.700Z,6.21
2022-11-12T14:23:47.793Z,6.42
2022-11-12T14:27:22.478Z,6.50
2022-11-12T14:30:44.891Z,6.68
2022-11-12T14:34:21.625Z,6.67
2022-11-12T14:37:48.579Z,6.63
2022-11-12T14:41:11.604Z,6.52
2022-11-12T14:44:34.877Z,6.31
2022-11-12T14:47:55.355Z,6.34
2022-11-12T14:51:16.059Z,6.51
2022-11-12T14:54:45.582Z,6.64
2022-11-12T14:58:06.105Z,6.46
2022-11-12T15:05:14.449Z,6.15
2022-11-12T15:08:36.839Z,6.30
2022-11-12T15:11:58.679Z,6.34
2022-11-12T15:15:22.723Z,6.28
2022-11-12T15:18:43.560Z,6.46
2022-11-12T15:22:04.341Z,6.46
2022-11-12T15:25:27.077Z,6.49
2022-11-12T15:29:00.150Z,6.48
2022-11-12T15:32:32.504Z,6.56
2022-11-12T15:35:57.210Z,6.66
2022-11-12T15:39:17.811Z,6.63
2022-11-12T15:42:39.673Z,6.57
2022-11-12T15:46:01.944Z,6.64
2022-11-12T15:49:22.405Z,6.69
2022-11-12T15:52:43.237Z,6.71
2022-11-12T15:56:03.799Z,6.71
2022-11-12T15:59:24.180Z,6.78
2022-11-12T16:02:47.760Z,6.68
2022-11-12T16:06:09.886Z,6.69
2022-11-12T16:09:30.108Z,6.80
2022-11-12T16:12:52.168Z,6.75
2022-11-12T16:16:12.824Z,6.71
2022-11-12T16:19:34.490Z,6.54
2022-11-12T16:22:55.675Z,6.64
2022-11-12T16:26:23.100Z,6.59
2022-11-12T16:29:43.231Z,6.68
2022-11-12T16:33:03.812Z,6.72
2022-11-12T16:36:25.512Z,6.83
2022-11-12T16:39:45.873Z,6.82
2022-11-12T16:43:06.431Z,6.80
2022-11-12T16:46:30.671Z,6.73
2022-11-12T16:49:50.785Z,6.74
2022-11-12T16:53:12.649Z,6.74
2022-11-12T16:56:33.838Z,6.87
2022-11-12T16:59:54.102Z,6.87
2022-11-12T17:03:14.930Z,6.80
2022-11-12T17:06:37.102Z,6.79
2022-11-12T17:09:58.762Z,6.88
2022-11-12T17:13:19.041Z,6.91
2022-11-12T17:16:39.410Z,6.89
2022-11-12T17:19:59.811Z,6.93
2022-11-12T17:23:20.308Z,7.03
2022-11-12T17:26:42.183Z,6.90
2022-11-12T17:30:02.778Z,6.75
2022-11-12T17:33:22.813Z,6.88
2022-11-12T17:36:43.985Z,6.98
2022-11-12T17:40:05.234Z,6.88
2022-11-12T17:43:27.171Z,6.88
2022-11-12T17:46:50.693Z,6.86
2022-11-12T17:50:10.926Z,6.79
2022-11-12T17:53:31.134Z,6.92
2022-11-12T17:56:51.407Z,6.89
2022-11-12T18:00:14.811Z,6.96
2022-11-12T18:03:38.144Z,7.00
2022-11-12T18:06:58.461Z,6.91
2022-11-12T18:10:19.817Z,6.89
2022-11-12T18:13:40.180Z,6.86
2022-11-12T18:17:02.000Z,6.92
2022-11-12T18:20:22.484Z,6.95
2022-11-12T18:23:44.275Z,6.97
2022-11-12T18:27:04.925Z,6.90
2022-11-12T18:30:25.273Z,6.93
2022-11-12T18:33:47.190Z,6.93
2022-11-12T18:37:07.579Z,6.94
2022-11-12T18:40:28.253Z,6.93
2022-11-12T18:43:48.430Z,6.87
2022-11-12T18:47:08.589Z,7.15
2022-11-12T18:50:30.116Z,7.18
2022-11-12T18:53:50.184Z,7.21
2022-11-12T18:57:10.296Z,7.17
2022-11-12T19:00:30.373Z,7.23
2022-11-12T19:03:53.800Z,7.19
2022-11-12T19:07:15.363Z,6.99
2022-11-12T19:10:36.001Z,7.09
2022-11-12T19:13:56.429Z,7.16
2022-11-12T19:17:16.707Z,7.12
2022-11-12T19:20:36.740Z,7.23
2022-11-12T19:24:00.313Z,7.23
2022-11-12T19:27:21.066Z,7.26
2022-11-12T19:30:41.100Z,7.25
2022-11-12T19:34:01.951Z,7.22
2022-11-12T19:37:33.631Z,7.29
2022-11-12T19:40:56.028Z,7.02
2022-11-12T19:44:16.792Z,6.89
2022-11-12T19:47:37.056Z,7.23
2022-11-12T19:51:02.086Z,7.10
2022-11-12T19:54:22.160Z,6.95
2022-11-12T19:57:45.147Z,7.34
2022-11-12T20:01:06.424Z,7.40
2022-11-12T20:04:27.007Z,7.28
2022-11-12T20:07:48.069Z,6.94
2022-11-12T20:11:08.499Z,6.87
2022-11-12T20:14:29.931Z,7.06
2022-11-12T20:17:50.259Z,7.15
2022-11-12T20:21:10.815Z,7.25
2022-11-12T20:24:31.366Z,7.15
2022-11-12T20:27:51.455Z,7.12
2022-11-12T20:31:14.591Z,7.07
2022-11-12T20:34:34.863Z,6.97
2022-11-12T20:37:54.999Z,6.95
2022-11-12T20:41:17.423Z,7.04
2022-11-12T20:44:37.929Z,7.06
2022-11-12T20:47:59.735Z,7.12
2022-11-12T20:51:24.286Z,7.22
2022-11-12T20:54:45.443Z,7.34
2022-11-12T20:58:05.612Z,7.13
2022-11-12T21:01:27.591Z,6.89
2022-11-12T21:04:49.542Z,6.86
2022-11-12T21:08:09.725Z,7.01
2022-11-12T21:11:30.328Z,7.16
2022-11-12T21:14:50.899Z,7.16
2022-11-12T21:18:11.548Z,7.07
2022-11-12T21:21:33.092Z,6.98
2022-11-12T21:24:53.388Z,7.13
2022-11-12T21:28:14.054Z,7.06
2022-11-12T21:31:34.264Z,7.10
2022-11-12T21:34:55.652Z,6.85
2022-11-12T21:38:16.962Z,6.83
2022-11-12T21:41:37.067Z,6.73
2022-11-12T21:44:57.364Z,6.79
2022-11-12T21:48:17.522Z,6.85
2022-11-12T21:51:37.627Z,6.92
2022-11-12T21:54:59.568Z,6.92
2022-11-12T21:58:19.852Z,6.93
2022-11-12T22:01:40.613Z,6.88
2022-11-12T22:05:00.741Z,6.76
2022-11-12T22:08:20.811Z,6.72
2022-11-12T22:11:42.274Z,6.76
2022-11-12T22:15:02.834Z,6.75
2022-11-12T22:18:23.345Z,6.73
2022-11-12T22:21:43.750Z,6.67
2022-11-12T22:25:04.748Z,6.42
2022-11-12T22:28:26.588Z,6.56
2022-11-12T22:31:47.097Z,6.52
2022-11-12T22:35:08.267Z,6.61
2022-11-12T22:38:32.939Z,6.39
2022-11-12T22:41:53.178Z,6.10
2022-11-12T22:45:15.199Z,6.00
2022-11-12T22:48:35.492Z,5.98
2022-11-12T22:51:55.764Z,5.96
2022-11-12T22:55:16.267Z,5.96
2022-11-12T22:58:36.549Z,5.95
2022-11-12T23:01:58.242Z,6.15
2022-11-12T23:05:18.668Z,6.21
2022-11-12T23:08:38.766Z,6.23
2022-11-12T23:11:59.048Z,5.89
2022-11-12T23:15:19.578Z,5.77
2022-11-12T23:18:41.467Z,5.67
2022-11-12T23:22:05.327Z,5.63
2022-11-12T23:25:27.854Z,5.66
2022-11-12T23:28:48.259Z,5.76
2022-11-12T23:32:08.648Z,5.78
2022-11-12T23:35:30.354Z,5.65
2022-11-12T23:38:51.332Z,5.81
2022-11-12T23:42:11.506Z,5.84
2022-11-12T23:45:36.746Z,5.80
2022-11-12T23:48:57.646Z,5.76
2022-11-12T23:52:19.232Z,5.91
2022-11-12T23:55:40.536Z,5.73
2022-11-12T23:59:00.841Z,5.75
